Time;durP1;ratioP1;P1;durP2;ratioP2;P2;SDS_P1;SDS_P2;PMS_P1;PMS_P2;Temp;Humidity;BMP_temperature;BMP_pressure;BME280_temperature;BME280_humidity;BME280_pressure;Samples;Min_cycle;Max_cycle;Signal;HPM_P1;HPM_P2
2023/12/13 00:01:40;;;;;;;4.00;1.33;;;5.10;62.40;;;;;;4945636;28;20043;-83
2023/12/13 00:04:06;;;;;;;4.80;1.23;;;5.10;62.70;;;;;;4946424;28;20040;-86
2023/12/13 00:06:34;;;;;;;4.53;1.30;;;5.10;62.60;;;;;;4949058;28;20054;-86
2023/12/13 00:09:01;;;;;;;7.82;1.90;;;5.10;62.40;;;;;;4945976;28;20031;-85
2023/12/13 00:11:27;;;;;;;3.67;1.73;;;5.10;62.40;;;;;;4945075;28;20043;-86
2023/12/13 00:13:53;;;;;;;7.57;2.03;;;5.00;61.90;;;;;;4942030;28;20411;-83
2023/12/13 00:16:21;;;;;;;5.13;1.42;;;5.10;62.00;;;;;;4942994;28;20046;-79
2023/12/13 00:18:47;;;;;;;5.25;1.67;;;5.00;62.10;;;;;;4944984;28;20126;-83
2023/12/13 00:21:15;;;;;;;5.03;1.50;;;5.00;61.70;;;;;;4942188;28;20050;-84
2023/12/13 00:23:46;;;;;;;6.90;1.63;;;5.00;61.30;;;;;;4946427;28;20126;-83
2023/12/13 00:26:16;;;;;;;4.85;1.90;;;5.00;60.90;;;;;;4945455;28;20037;-83
2023/12/13 00:28:43;;;;;;;5.90;1.73;;;5.00;61.60;;;;;;4958595;28;20071;-84
2023/12/13 00:31:10;;;;;;;8.07;1.88;;;5.00;61.00;;;;;;4942249;28;20035;-84
2023/12/13 00:33:36;;;;;;;3.60;1.52;;;5.00;61.10;;;;;;4943179;28;20583;-79
2023/12/13 00:36:03;;;;;;;5.10;1.80;;;5.00;61.10;;;;;;4945384;29;20068;-83
2023/12/13 00:38:29;;;;;;;4.95;1.80;;;4.90;61.10;;;;;;4943672;28;20054;-83
2023/12/13 00:40:55;;;;;;;6.10;1.60;;;4.90;61.00;;;;;;4943930;28;20047;-82
2023/12/13 00:43:21;;;;;;;5.38;1.38;;;5.00;61.50;;;;;;4943796;28;20090;-83
2023/12/13 00:45:48;;;;;;;4.20;1.38;;;4.90;61.50;;;;;;4943897;28;20090;-82
2023/12/13 00:48:14;;;;;;;3.97;1.63;;;4.90;61.70;;;;;;4943895;28;20139;-83
2023/12/13 00:50:40;;;;;;;2.92;1.38;;;4.90;62.00;;;;;;4944357;29;20031;-83
2023/12/13 00:53:07;;;;;;;4.68;1.52;;;4.90;62.10;;;;;;4945739;28;20281;-81
2023/12/13 00:55:33;;;;;;;5.63;1.67;;;4.90;61.80;;;;;;4945557;28;20297;-80
2023/12/13 00:58:00;;;;;;;5.57;1.35;;;4.90;61.80;;;;;;4944104;28;20035;-81
2023/12/13 01:00:26;;;;;;;3.85;1.10;;;4.90;61.30;;;;;;4926613;28;20071;-81
2023/12/13 01:02:52;;;;;;;5.50;1.45;;;4.80;60.70;;;;;;4945076;29;20039;-82
2023/12/13 01:05:18;;;;;;;5.63;1.48;;;4.90;61.10;;;;;;4942231;28;20047;-82
2023/12/13 01:07:44;;;;;;;3.63;1.35;;;4.90;61.30;;;;;;4942383;28;20503;-82
2023/12/13 01:10:11;;;;;;;3.00;1.40;;;4.90;61.50;;;;;;4942662;28;20426;-81
2023/12/13 01:12:37;;;;;;;4.07;1.50;;;4.90;61.50;;;;;;4943572;28;20055;-82
2023/12/13 01:15:03;;;;;;;5.35;1.50;;;4.90;61.40;;;;;;4943541;29;20035;-81
2023/12/13 01:17:29;;;;;;;3.60;1.52;;;4.90;61.50;;;;;;4959952;28;20087;-82
2023/12/13 01:19:55;;;;;;;2.92;1.48;;;4.90;61.20;;;;;;4931542;29;20059;-81
2023/12/13 01:22:22;;;;;;;5.40;1.50;;;4.90;61.30;;;;;;4940506;29;20046;-84
2023/12/13 01:24:48;;;;;;;4.60;1.50;;;4.80;60.90;;;;;;4946240;28;20529;-83
2023/12/13 01:27:13;;;;;;;5.28;1.70;;;4.80;61.00;;;;;;4940322;28;20134;-85
2023/12/13 01:29:40;;;;;;;4.57;1.83;;;4.80;61.30;;;;;;4941994;28;20043;-80
2023/12/13 01:32:06;;;;;;;3.85;1.63;;;4.80;60.50;;;;;;4943034;28;20425;-84
2023/12/13 01:34:35;;;;;;;5.53;1.80;;;4.80;60.90;;;;;;4942685;28;20086;-84
2023/12/13 01:37:01;;;;;;;5.38;1.60;;;4.80;61.40;;;;;;4942849;28;20038;-84
2023/12/13 01:39:27;;;;;;;4.75;1.27;;;4.80;61.10;;;;;;4942791;28;20066;-84
2023/12/13 01:41:53;;;;;;;4.78;1.67;;;4.80;60.60;;;;;;4945796;28;20035;-84
2023/12/13 01:44:19;;;;;;;4.10;1.15;;;4.80;60.50;;;;;;4942397;28;20133;-82
2023/12/13 01:46:46;;;;;;;4.85;1.02;;;4.80;60.90;;;;;;4944648;28;20058;-83
2023/12/13 01:49:13;;;;;;;5.90;1.38;;;4.70;60.90;;;;;;4946130;28;20036;-84
2023/12/13 01:51:40;;;;;;;5.80;1.30;;;4.70;61.00;;;;;;4941835;28;20042;-83
2023/12/13 01:54:10;;;;;;;3.55;1.40;;;4.70;61.00;;;;;;4943350;29;20429;-84
2023/12/13 01:56:40;;;;;;;5.15;1.20;;;4.70;60.60;;;;;;4930227;29;20046;-82
2023/12/13 01:59:07;;;;;;;3.42;1.60;;;4.70;60.70;;;;;;4945275;28;20039;-86
2023/12/13 02:01:34;;;;;;;3.45;1.52;;;4.70;60.90;;;;;;4943943;28;20055;-86
2023/12/13 02:04:01;;;;;;;6.43;1.35;;;4.70;60.90;;;;;;4943413;28;20039;-81
2023/12/13 02:06:27;;;;;;;3.72;1.63;;;4.70;61.10;;;;;;4945571;28;20031;-86
2023/12/13 02:08:54;;;;;;;4.20;1.52;;;4.70;61.50;;;;;;4948687;28;20055;-82
2023/12/13 02:11:20;;;;;;;4.15;1.60;;;4.70;61.20;;;;;;4947015;28;20035;-82
2023/12/13 02:13:47;;;;;;;6.18;2.05;;;4.70;61.30;;;;;;4952018;28;20493;-83
2023/12/13 02:16:13;;;;;;;1.77;1.10;;;4.70;61.40;;;;;;4949210;29;20058;-81
2023/12/13 02:18:39;;;;;;;4.10;1.20;;;4.70;61.40;;;;;;4947587;28;20063;-84
2023/12/13 02:21:06;;;;;;;4.28;1.40;;;4.70;61.20;;;;;;4947460;28;20046;-82
2023/12/13 02:23:32;;;;;;;2.85;1.27;;;4.70;60.90;;;;;;4946544;28;20402;-80
2023/12/13 02:26:00;;;;;;;4.90;1.98;;;4.70;60.80;;;;;;4964238;28;20035;-84
2023/12/13 02:28:27;;;;;;;3.80;1.33;;;4.70;60.50;;;;;;4929529;29;20035;-87
2023/12/13 02:30:56;;;;;;;4.00;1.65;;;4.70;60.80;;;;;;4948127;28;20046;-84
2023/12/13 02:33:29;;;;;;;2.65;1.00;;;4.70;61.30;;;;;;4947413;28;20039;-87
2023/12/13 02:35:57;;;;;;;4.47;1.23;;;4.70;61.30;;;;;;4961039;28;20023;-82
2023/12/13 02:38:24;;;;;;;4.40;1.20;;;4.70;61.70;;;;;;4948361;28;20035;-84
2023/12/13 02:40:50;;;;;;;4.43;1.38;;;4.70;61.40;;;;;;4944641;28;20039;-84
2023/12/13 02:43:16;;;;;;;3.97;1.38;;;4.70;61.00;;;;;;4945799;28;20035;-85
2023/12/13 02:45:42;;;;;;;3.97;1.35;;;4.70;61.20;;;;;;4948987;28;20039;-84
2023/12/13 02:48:08;;;;;;;3.42;1.23;;;4.70;61.10;;;;;;4929983;29;20390;-85
2023/12/13 02:50:36;;;;;;;2.67;1.30;;;4.70;61.50;;;;;;4945027;28;20035;-86
2023/12/13 02:53:08;;;;;;;5.93;1.92;;;4.70;61.60;;;;;;4947037;28;20036;-84
2023/12/13 02:55:34;;;;;;;5.18;1.33;;;4.70;61.90;;;;;;4945540;28;20039;-85
2023/12/13 02:58:00;;;;;;;2.90;1.10;;;4.70;61.90;;;;;;4945002;28;20039;-84
2023/12/13 03:00:27;;;;;;;1.73;1.05;;;4.70;61.50;;;;;;4946611;28;20066;-83
2023/12/13 03:02:53;;;;;;;5.50;1.48;;;4.70;61.30;;;;;;4947304;29;20506;-83
2023/12/13 03:05:19;;;;;;;5.93;1.50;;;4.70;61.50;;;;;;4945973;28;20044;-87
2023/12/13 03:07:45;;;;;;;5.75;1.77;;;4.70;61.60;;;;;;4959886;28;20050;-84
2023/12/13 03:10:11;;;;;;;3.83;1.50;;;4.70;61.70;;;;;;4945997;28;20077;-85
2023/12/13 03:12:37;;;;;;;5.07;1.35;;;4.70;61.60;;;;;;4945023;28;20086;-84
2023/12/13 03:15:03;;;;;;;3.78;1.02;;;4.70;61.70;;;;;;4950015;28;20043;-86
2023/12/13 03:17:30;;;;;;;6.47;2.00;;;4.70;61.30;;;;;;4946326;28;20043;-83
2023/12/13 03:19:56;;;;;;;4.10;1.05;;;4.70;61.30;;;;;;4931864;28;20040;-86
2023/12/13 03:22:22;;;;;;;3.85;1.45;;;4.70;61.30;;;;;;4946864;28;20031;-90
2023/12/13 03:24:48;;;;;;;4.97;1.13;;;4.70;61.10;;;;;;4935235;29;20471;-88
2023/12/13 03:27:14;;;;;;;3.35;1.23;;;4.70;61.60;;;;;;4929620;28;20035;-89
2023/12/13 03:29:40;;;;;;;3.17;1.25;;;4.70;61.80;;;;;;4947055;29;20514;-89
2023/12/13 03:32:06;;;;;;;4.38;1.48;;;4.70;61.80;;;;;;4933513;28;20201;-86
2023/12/13 03:34:32;;;;;;;6.75;1.83;;;4.70;61.80;;;;;;4947503;28;20039;-82
2023/12/13 03:36:58;;;;;;;3.42;1.60;;;4.70;61.50;;;;;;4947160;28;20414;-88
2023/12/13 03:39:24;;;;;;;3.72;1.35;;;4.70;61.40;;;;;;4949729;28;20035;-86
2023/12/13 03:41:50;;;;;;;4.43;1.52;;;4.70;61.50;;;;;;4946692;28;20114;-87
2023/12/13 03:44:16;;;;;;;4.60;1.15;;;4.70;61.10;;;;;;4943396;28;20625;-85
2023/12/13 03:46:42;;;;;;;3.50;1.27;;;4.70;60.80;;;;;;4944906;28;20036;-84
2023/12/13 03:49:08;;;;;;;4.15;1.52;;;4.60;60.80;;;;;;4944169;28;20569;-82
2023/12/13 03:51:35;;;;;;;6.60;1.30;;;4.70;60.90;;;;;;4943256;28;20036;-85
2023/12/13 03:54:01;;;;;;;5.45;1.20;;;4.70;61.40;;;;;;4943758;29;20032;-87
2023/12/13 03:56:29;;;;;;;3.17;0.90;;;4.70;60.80;;;;;;4932495;29;20422;-83
2023/12/13 03:58:56;;;;;;;4.40;1.50;;;4.70;60.90;;;;;;4942009;28;20039;-84
2023/12/13 04:01:22;;;;;;;6.20;1.15;;;4.70;61.10;;;;;;4960493;28;20040;-83
2023/12/13 04:03:48;;;;;;;4.40;1.10;;;4.60;61.20;;;;;;4943324;28;20118;-82
2023/12/13 04:06:14;;;;;;;6.53;1.13;;;4.70;61.30;;;;;;4944331;28;20024;-82
2023/12/13 04:08:40;;;;;;;5.00;1.25;;;4.70;61.50;;;;;;4943978;29;20047;-82
2023/12/13 04:11:06;;;;;;;4.20;1.60;;;4.70;61.40;;;;;;4928614;29;20071;-86
2023/12/13 04:13:32;;;;;;;4.07;1.15;;;4.70;61.10;;;;;;4928306;29;20562;-82
2023/12/13 04:15:58;;;;;;;4.15;1.63;;;4.70;61.00;;;;;;4944046;28;20034;-85
2023/12/13 04:18:24;;;;;;;4.80;1.15;;;4.70;60.90;;;;;;4943352;28;20086;-81
2023/12/13 04:20:50;;;;;;;3.40;1.55;;;4.60;60.90;;;;;;4944982;28;20408;-85
2023/12/13 04:23:16;;;;;;;4.78;1.45;;;4.60;60.80;;;;;;4945719;28;20046;-84
2023/12/13 04:25:42;;;;;;;4.78;1.40;;;4.60;61.40;;;;;;4946192;28;20103;-86
2023/12/13 04:28:08;;;;;;;3.30;1.48;;;4.60;60.80;;;;;;4943680;28;20094;-81
2023/12/13 04:30:34;;;;;;;3.72;1.40;;;4.60;60.60;;;;;;4946257;28;20035;-84
2023/12/13 04:33:00;;;;;;;2.45;1.35;;;4.60;60.60;;;;;;4944013;29;20134;-80
2023/12/13 04:35:26;;;;;;;3.55;1.08;;;4.60;60.80;;;;;;4943932;28;20110;-81
2023/12/13 04:37:52;;;;;;;5.10;1.33;;;4.60;61.00;;;;;;4945511;28;20094;-83
2023/12/13 04:40:18;;;;;;;3.72;1.30;;;4.60;60.90;;;;;;4942420;28;20037;-84
2023/12/13 04:42:44;;;;;;;2.95;0.90;;;4.60;60.80;;;;;;4958650;28;20069;-86
2023/12/13 04:45:10;;;;;;;3.92;1.25;;;4.60;60.10;;;;;;4945100;29;20059;-81
2023/12/13 04:47:36;;;;;;;6.30;1.33;;;4.60;59.50;;;;;;4943239;29;20039;-86
2023/12/13 04:50:02;;;;;;;6.65;1.70;;;4.60;58.50;;;;;;4948018;28;20035;-82
2023/12/13 04:52:29;;;;;;;5.78;2.17;;;4.70;57.80;;;;;;4947346;28;20129;-85
2023/12/13 04:54:55;;;;;;;3.33;1.45;;;4.70;57.10;;;;;;4941730;28;20027;-82
2023/12/13 04:57:21;;;;;;;6.93;1.98;;;4.70;56.20;;;;;;4944057;28;20035;-85
2023/12/13 04:59:47;;;;;;;3.00;1.63;;;4.70;55.70;;;;;;4945077;29;20036;-86
2023/12/13 05:02:13;;;;;;;7.38;1.67;;;4.70;54.80;;;;;;4943208;28;20047;-82
2023/12/13 05:04:39;;;;;;;5.07;1.40;;;4.70;54.90;;;;;;4942867;28;20036;-88
2023/12/13 05:07:05;;;;;;;4.53;1.40;;;4.60;54.40;;;;;;4944681;28;20039;-79
2023/12/13 05:09:31;;;;;;;6.10;2.03;;;4.60;54.30;;;;;;4944295;28;20062;-79
2023/12/13 05:11:57;;;;;;;5.63;1.67;;;4.60;53.90;;;;;;4943780;29;20134;-81
2023/12/13 05:14:23;;;;;;;7.22;1.88;;;4.60;53.70;;;;;;4945059;28;20445;-81
2023/12/13 05:16:49;;;;;;;4.90;1.80;;;4.60;53.60;;;;;;4942817;28;20104;-83
2023/12/13 05:19:15;;;;;;;5.45;1.42;;;4.60;53.40;;;;;;4948843;28;20378;-79
2023/12/13 05:21:41;;;;;;;7.30;1.25;;;4.50;53.10;;;;;;4946229;28;20399;-83
2023/12/13 05:24:07;;;;;;;6.45;1.60;;;4.50;53.00;;;;;;4944907;29;20050;-81
2023/12/13 05:26:33;;;;;;;7.82;1.42;;;4.50;53.10;;;;;;4942951;28;20043;-79
2023/12/13 05:29:00;;;;;;;4.10;1.58;;;4.50;52.60;;;;;;4959513;28;20051;-82
2023/12/13 05:31:26;;;;;;;7.68;1.50;;;4.50;52.60;;;;;;4959415;28;20060;-85
2023/12/13 05:33:52;;;;;;;8.38;1.80;;;4.50;52.60;;;;;;4943099;28;20083;-83
2023/12/13 05:36:18;;;;;;;6.63;2.13;;;4.50;55.70;;;;;;4942059;28;20042;-84
2023/12/13 05:38:44;;;;;;;5.70;1.85;;;4.40;59.10;;;;;;4936929;28;20123;-83
2023/12/13 05:41:10;;;;;;;6.32;1.80;;;4.50;60.10;;;;;;4942454;28;20039;-83
2023/12/13 05:43:36;;;;;;;5.72;1.63;;;4.50;61.40;;;;;;4943741;28;20127;-77
2023/12/13 05:46:04;;;;;;;7.95;1.73;;;4.50;62.30;;;;;;4942937;28;20489;-79
2023/12/13 05:48:30;;;;;;;6.55;2.03;;;4.50;62.60;;;;;;4943002;28;20114;-79
2023/12/13 05:50:56;;;;;;;4.95;1.42;;;4.50;63.20;;;;;;4959311;28;20039;-77
2023/12/13 05:53:22;;;;;;;6.78;1.63;;;4.50;63.40;;;;;;4944553;28;20039;-79
2023/12/13 05:55:48;;;;;;;6.15;1.48;;;4.50;63.80;;;;;;4946535;28;20035;-79
2023/12/13 05:58:14;;;;;;;5.45;1.30;;;4.50;64.00;;;;;;4943103;28;20040;-78
2023/12/13 06:00:40;;;;;;;6.80;1.65;;;4.50;63.70;;;;;;4938393;28;20032;-79
2023/12/13 06:03:06;;;;;;;5.30;1.88;;;4.60;63.90;;;;;;4941551;29;20039;-78
2023/12/13 06:05:32;;;;;;;7.30;1.77;;;4.50;63.70;;;;;;4941422;28;20039;-79
2023/12/13 06:07:58;;;;;;;3.80;1.58;;;4.60;64.10;;;;;;4944011;28;20066;-78
2023/12/13 06:10:24;;;;;;;4.90;1.40;;;4.60;64.40;;;;;;4941106;28;20114;-76
2023/12/13 06:12:52;;;;;;;4.75;1.30;;;4.60;64.70;;;;;;4941673;28;20070;-78
2023/12/13 06:15:21;;;;;;;4.10;1.60;;;4.60;64.80;;;;;;4940103;28;20039;-78
2023/12/13 06:17:48;;;;;;;7.07;1.30;;;4.60;65.20;;;;;;4930151;29;20506;-78
2023/12/13 06:20:14;;;;;;;6.35;1.55;;;4.70;65.30;;;;;;4944470;28;20204;-78
2023/12/13 06:22:40;;;;;;;3.50;1.30;;;4.70;65.60;;;;;;4942147;28;20525;-75
2023/12/13 06:25:07;;;;;;;3.80;1.60;;;4.70;65.50;;;;;;4941962;28;20051;-78
2023/12/13 06:27:33;;;;;;;3.92;1.55;;;4.70;65.90;;;;;;4944767;28;20062;-78
2023/12/13 06:29:59;;;;;;;3.78;1.30;;;4.80;65.60;;;;;;4941878;29;20054;-76
2023/12/13 06:32:25;;;;;;;8.82;2.10;;;4.80;65.70;;;;;;4940798;28;20043;-76
2023/12/13 06:34:52;;;;;;;5.85;1.65;;;4.80;65.60;;;;;;4929679;29;20031;-77
2023/12/13 06:37:19;;;;;;;5.97;1.48;;;4.80;65.60;;;;;;4940806;28;20048;-77
2023/12/13 06:39:45;;;;;;;3.95;1.70;;;4.80;65.20;;;;;;4940413;28;20066;-76
2023/12/13 06:42:12;;;;;;;7.35;1.80;;;4.80;65.10;;;;;;4945394;28;20411;-75
2023/12/13 06:44:39;;;;;;;7.50;1.70;;;4.80;65.30;;;;;;4942853;29;20055;-77
2023/12/13 06:47:06;;;;;;;6.35;1.40;;;4.80;65.10;;;;;;4942210;28;21074;-77
2023/12/13 06:49:34;;;;;;;5.80;1.40;;;4.80;64.90;;;;;;4941635;28;20138;-77
2023/12/13 06:52:02;;;;;;;9.05;2.35;;;4.80;64.70;;;;;;4946694;28;20039;-77
2023/12/13 06:54:28;;;;;;;4.43;1.60;;;4.80;64.70;;;;;;4946350;28;20043;-78
2023/12/13 06:56:55;;;;;;;5.35;1.42;;;4.90;64.60;;;;;;4944323;29;20040;-77
2023/12/13 06:59:21;;;;;;;5.78;1.50;;;4.90;64.70;;;;;;4928416;29;20031;-77
2023/12/13 07:01:47;;;;;;;6.10;1.60;;;4.90;64.40;;;;;;4917177;29;20106;-78
2023/12/13 07:04:13;;;;;;;4.38;0.95;;;4.90;64.30;;;;;;4942975;28;20174;-77
2023/12/13 07:06:41;;;;;;;7.43;1.25;;;4.90;64.20;;;;;;4944353;28;20459;-77
2023/12/13 07:09:08;;;;;;;10.07;1.58;;;4.90;64.20;;;;;;4947125;29;20308;-77
2023/12/13 07:11:34;;;;;;;2.95;1.30;;;4.90;64.20;;;;;;4943956;29;20043;-77
2023/12/13 07:14:01;;;;;;;4.25;1.10;;;4.90;64.30;;;;;;4945241;28;20046;-79
2023/12/13 07:16:27;;;;;;;3.33;1.38;;;5.00;65.30;;;;;;4944784;28;20054;-77
2023/12/13 07:18:53;;;;;;;5.05;2.22;;;4.90;65.40;;;;;;4945061;28;20043;-77
2023/12/13 07:21:19;;;;;;;5.57;1.80;;;5.00;65.30;;;;;;4944078;28;20402;-78
2023/12/13 07:23:46;;;;;;;7.32;1.42;;;5.00;65.30;;;;;;4942711;29;20075;-79
2023/12/13 07:26:12;;;;;;;7.40;1.85;;;5.00;65.30;;;;;;4948528;28;20043;-80
2023/12/13 07:28:38;;;;;;;6.78;1.50;;;5.00;65.20;;;;;;4943753;28;20135;-77
2023/12/13 07:31:05;;;;;;;4.82;1.40;;;5.10;65.20;;;;;;4944600;28;20522;-76
2023/12/13 07:33:34;;;;;;;4.85;1.90;;;5.10;65.10;;;;;;4945762;28;20054;-78
2023/12/13 07:36:01;;;;;;;4.75;1.20;;;5.10;65.00;;;;;;4945933;29;20027;-80
2023/12/13 07:38:27;;;;;;;5.03;1.38;;;5.10;64.90;;;;;;4943453;28;20035;-78
2023/12/13 07:40:54;;;;;;;4.55;1.75;;;5.10;65.60;;;;;;4948727;28;20035;-79
2023/12/13 07:43:20;;;;;;;10.40;1.92;;;5.20;65.40;;;;;;4928432;29;20035;-78
2023/12/13 07:45:51;;;;;;;8.32;1.55;;;5.20;65.30;;;;;;4958873;28;20035;-78
2023/12/13 07:48:20;;;;;;;5.97;1.88;;;5.20;65.20;;;;;;4945777;28;20087;-79
2023/12/13 07:50:47;;;;;;;11.77;2.03;;;5.20;65.00;;;;;;4948915;29;20085;-83
2023/12/13 07:53:13;;;;;;;5.45;1.90;;;5.20;64.90;;;;;;4954390;28;20050;-80
2023/12/13 07:55:39;;;;;;;6.63;2.13;;;5.20;65.10;;;;;;4949958;28;20476;-79
2023/12/13 07:58:05;;;;;;;6.50;1.90;;;5.20;65.30;;;;;;4953070;28;20521;-86
2023/12/13 08:00:31;;;;;;;8.88;2.10;;;5.20;65.50;;;;;;4951540;28;20454;-86
2023/12/13 08:02:57;;;;;;;4.75;1.70;;;5.20;65.30;;;;;;4951497;28;20109;-88
2023/12/13 08:05:23;;;;;;;6.75;1.75;;;5.20;65.40;;;;;;4953243;28;20043;-81
2023/12/13 08:07:49;;;;;;;7.13;1.50;;;5.20;65.40;;;;;;4953490;28;20043;-84
2023/12/13 08:10:15;;;;;;;5.85;2.20;;;5.20;65.30;;;;;;4970220;28;20058;-81
2023/12/13 08:12:44;;;;;;;7.75;1.77;;;5.20;65.30;;;;;;4951884;28;20039;-85
2023/12/13 08:15:11;;;;;;;7.28;2.20;;;5.20;65.40;;;;;;4953816;28;20042;-83
2023/12/13 08:17:38;;;;;;;7.18;1.80;;;5.20;65.90;;;;;;4953356;28;20047;-82
2023/12/13 08:20:06;;;;;;;8.57;2.13;;;5.20;65.80;;;;;;4940288;28;20039;-83
2023/12/13 08:22:32;;;;;;;5.85;1.65;;;5.20;66.10;;;;;;4934570;29;20118;-82
2023/12/13 08:25:00;;;;;;;7.85;2.08;;;5.20;66.00;;;;;;4956706;28;20134;-82
2023/12/13 08:27:26;;;;;;;6.13;1.95;;;5.20;66.20;;;;;;4946067;28;20031;-84
2023/12/13 08:29:52;;;;;;;4.78;1.80;;;5.20;66.40;;;;;;4932977;29;20059;-82
2023/12/13 08:32:18;;;;;;;6.22;1.85;;;5.20;66.60;;;;;;4947549;28;20070;-82
2023/12/13 08:34:45;;;;;;;6.85;2.05;;;5.20;66.40;;;;;;4951206;28;20040;-81
2023/12/13 08:37:12;;;;;;;6.97;1.73;;;5.20;66.50;;;;;;4929265;29;20130;-81
2023/12/13 08:39:40;;;;;;;6.10;1.75;;;5.20;66.50;;;;;;4931608;28;20390;-81
2023/12/13 08:42:06;;;;;;;6.28;1.70;;;5.30;66.60;;;;;;4958906;28;20106;-80
2023/12/13 08:44:32;;;;;;;5.72;1.92;;;5.20;66.50;;;;;;4942610;28;20035;-82
2023/12/13 08:46:58;;;;;;;5.85;1.73;;;5.30;66.30;;;;;;4959400;28;20494;-80
2023/12/13 08:49:24;;;;;;;8.90;2.13;;;5.30;66.40;;;;;;4945086;28;20039;-80
2023/12/13 08:51:50;;;;;;;7.32;2.22;;;5.20;66.40;;;;;;4926693;29;20450;-81
2023/12/13 08:54:16;;;;;;;6.47;1.65;;;5.20;66.90;;;;;;4926868;28;20543;-81
2023/12/13 08:56:43;;;;;;;5.65;2.10;;;5.20;66.40;;;;;;4959240;28;20035;-82
2023/12/13 08:59:09;;;;;;;7.88;2.10;;;5.30;66.30;;;;;;4931231;29;20522;-81
2023/12/13 09:01:35;;;;;;;7.53;1.70;;;5.30;66.40;;;;;;4914865;29;20070;-82
2023/12/13 09:04:01;;;;;;;9.10;2.28;;;5.30;66.60;;;;;;4943794;28;20031;-80
2023/12/13 09:06:27;;;;;;;7.38;2.13;;;5.30;66.50;;;;;;4945131;28;20031;-81
2023/12/13 09:08:53;;;;;;;7.25;2.10;;;5.30;66.60;;;;;;4931440;29;20782;-82
2023/12/13 09:11:19;;;;;;;9.30;2.28;;;5.30;66.80;;;;;;4942142;28;20031;-87
2023/12/13 09:13:45;;;;;;;10.05;2.80;;;5.30;67.00;;;;;;4944997;28;20133;-87
2023/12/13 09:16:12;;;;;;;5.88;2.35;;;5.30;67.10;;;;;;4940751;28;20051;-86
2023/12/13 09:18:43;;;;;;;13.48;2.00;;;5.30;67.20;;;;;;4941809;28;20043;-84
2023/12/13 09:21:09;;;;;;;9.60;2.05;;;5.30;67.30;;;;;;4943440;29;20042;-87
2023/12/13 09:23:36;;;;;;;7.97;2.33;;;5.30;67.10;;;;;;4941495;28;20044;-85
2023/12/13 09:26:04;;;;;;;9.57;2.30;;;5.30;67.30;;;;;;4942297;28;20036;-85
2023/12/13 09:28:30;;;;;;;6.00;1.98;;;5.30;67.30;;;;;;4942325;28;20031;-85
2023/12/13 09:30:57;;;;;;;8.32;1.90;;;5.30;67.30;;;;;;4944412;28;20036;-85
2023/12/13 09:33:23;;;;;;;12.18;2.60;;;5.30;67.20;;;;;;4939401;28;20039;-84
2023/12/13 09:35:49;;;;;;;6.65;2.22;;;5.30;67.20;;;;;;4945590;29;20030;-83
2023/12/13 09:38:16;;;;;;;12.63;2.22;;;5.30;67.30;;;;;;4942500;28;20123;-85
2023/12/13 09:40:42;;;;;;;5.88;2.50;;;5.30;67.20;;;;;;4939505;28;20043;-85
2023/12/13 09:43:09;;;;;;;5.55;2.30;;;5.30;66.90;;;;;;4941956;28;20039;-87
2023/12/13 09:45:39;;;;;;;7.25;2.45;;;5.40;69.60;;;;;;4925299;28;20741;-85
2023/12/13 09:48:06;;;;;;;8.43;2.47;;;5.40;70.80;;;;;;4924529;29;20071;-85
2023/12/13 09:50:34;;;;;;;10.38;2.67;;;5.40;70.10;;;;;;4929198;29;20050;-84
2023/12/13 09:53:03;;;;;;;9.45;2.63;;;5.40;69.40;;;;;;4961617;28;20104;-82
2023/12/13 09:55:30;;;;;;;6.95;2.10;;;5.40;69.00;;;;;;4947396;28;20078;-86
2023/12/13 09:57:56;;;;;;;5.57;2.10;;;5.40;68.60;;;;;;4941809;28;20039;-83
2023/12/13 10:00:22;;;;;;;7.80;2.22;;;5.40;68.60;;;;;;4943223;28;20042;-82
2023/12/13 10:02:48;;;;;;;11.43;2.03;;;5.40;68.30;;;;;;4941284;29;20410;-81
2023/12/13 10:05:17;;;;;;;8.23;2.00;;;5.40;68.40;;;;;;4943424;28;20047;-83
2023/12/13 10:07:44;;;;;;;7.63;2.47;;;5.40;68.30;;;;;;4959731;28;20070;-83
2023/12/13 10:10:10;;;;;;;5.57;2.05;;;5.40;68.20;;;;;;4929773;29;20039;-82
2023/12/13 10:12:45;;;;;;;8.65;2.58;;;5.40;68.30;;;;;;4966451;28;20043;-83
2023/12/13 10:15:12;;;;;;;8.55;2.00;;;5.40;68.60;;;;;;4953169;28;20475;-82
2023/12/13 10:17:39;;;;;;;5.45;2.60;;;5.40;68.70;;;;;;4939137;28;20047;-82
2023/12/13 10:20:06;;;;;;;15.05;3.17;;;5.50;68.90;;;;;;4958217;28;20042;-82
2023/12/13 10:22:33;;;;;;;8.77;2.05;;;5.50;69.00;;;;;;4955088;28;20032;-85
2023/12/13 10:24:59;;;;;;;7.80;1.95;;;5.50;68.90;;;;;;4957974;28;20043;-83
2023/12/13 10:27:25;;;;;;;9.35;2.92;;;5.50;69.00;;;;;;4951255;28;20074;-83
2023/12/13 10:29:55;;;;;;;13.48;2.50;;;5.50;68.80;;;;;;4947317;29;20072;-84
2023/12/13 10:32:22;;;;;;;8.77;2.25;;;5.50;68.70;;;;;;4959866;28;20565;-83
2023/12/13 10:34:48;;;;;;;7.60;2.00;;;5.50;68.90;;;;;;4928903;29;20035;-83
2023/12/13 10:37:14;;;;;;;10.90;2.42;;;5.50;69.20;;;;;;4948187;28;20043;-81
2023/12/13 10:39:44;;;;;;;8.40;2.60;;;5.50;69.10;;;;;;4930609;29;20094;-87
2023/12/13 10:42:13;;;;;;;12.27;2.20;;;5.50;68.70;;;;;;4944796;29;20038;-83
2023/12/13 10:44:40;;;;;;;8.68;2.42;;;5.50;68.30;;;;;;4949831;29;20423;-83
2023/12/13 10:47:08;;;;;;;4.38;1.77;;;5.50;68.20;;;;;;4944129;28;20038;-84
2023/12/13 10:49:36;;;;;;;10.57;2.33;;;5.50;68.20;;;;;;4933722;29;20036;-84
2023/12/13 10:52:06;;;;;;;8.70;1.80;;;5.50;68.80;;;;;;4944353;28;20032;-84
2023/12/13 10:54:32;;;;;;;11.45;2.72;;;5.50;69.10;;;;;;4944774;28;20147;-86
2023/12/13 10:56:59;;;;;;;10.63;2.28;;;5.50;69.20;;;;;;4934051;29;20023;-88
2023/12/13 10:59:27;;;;;;;6.90;2.13;;;5.50;69.30;;;;;;4919223;29;20106;-87
2023/12/13 11:01:54;;;;;;;7.22;1.95;;;5.50;69.40;;;;;;4934204;29;20059;-84
2023/12/13 11:04:22;;;;;;;8.60;2.22;;;5.50;69.40;;;;;;4945613;28;20040;-85
2023/12/13 11:06:48;;;;;;;11.73;2.10;;;5.40;69.60;;;;;;4945819;28;20447;-85
2023/12/13 11:09:21;;;;;;;9.95;2.05;;;5.50;69.90;;;;;;4933704;28;20057;-86
2023/12/13 11:11:47;;;;;;;4.80;2.05;;;5.50;70.40;;;;;;4929361;29;20506;-84
2023/12/13 11:14:20;;;;;;;11.18;2.60;;;5.50;70.60;;;;;;4918247;29;20047;-85
2023/12/13 11:16:48;;;;;;;18.27;2.83;;;5.50;70.50;;;;;;4960985;28;20039;-81
2023/12/13 11:19:29;;;;;;;11.43;2.72;;;5.50;70.50;;;;;;4925402;29;20704;-80
2023/12/13 11:21:56;;;;;;;9.88;2.63;;;5.40;70.00;;;;;;4959269;28;20040;-80
2023/12/13 11:24:26;;;;;;;10.18;2.20;;;5.50;70.00;;;;;;4945926;28;20031;-81
2023/12/13 11:26:54;;;;;;;8.35;2.15;;;5.40;69.60;;;;;;4949342;29;20031;-81
2023/12/13 11:29:22;;;;;;;15.13;2.65;;;5.40;69.40;;;;;;4916889;29;20043;-79
2023/12/13 11:31:59;;;;;;;11.25;2.33;;;5.40;69.40;;;;;;4943961;28;20042;-81
2023/12/13 11:34:48;;;;;;;8.65;2.33;;;5.40;69.20;;;;;;4946793;28;20043;-81
2023/12/13 11:37:15;;;;;;;8.10;2.72;;;5.40;69.50;;;;;;4957168;28;20040;-82
2023/12/13 11:39:42;;;;;;;9.93;2.22;;;5.40;69.50;;;;;;4931636;29;20046;-83
2023/12/13 11:42:10;;;;;;;11.98;2.20;;;5.40;69.60;;;;;;4944517;29;20043;-82
2023/12/13 11:44:39;;;;;;;8.77;1.73;;;5.40;70.00;;;;;;4947314;28;20047;-81
2023/12/13 11:47:15;;;;;;;8.65;1.90;;;5.40;70.40;;;;;;4927166;29;20133;-81
2023/12/13 11:49:43;;;;;;;11.13;2.25;;;5.40;69.70;;;;;;4943034;28;20042;-81
2023/12/13 11:52:10;;;;;;;7.53;2.25;;;5.40;69.60;;;;;;4930871;28;20050;-82
2023/12/13 11:54:37;;;;;;;8.73;2.55;;;5.40;69.90;;;;;;4939897;28;20043;-81
2023/12/13 11:57:15;;;;;;;12.07;1.70;;;5.40;69.90;;;;;;4942691;28;20024;-82
2023/12/13 11:59:42;;;;;;;6.80;1.73;;;5.40;69.90;;;;;;4943914;29;20039;-81
2023/12/13 12:02:10;;;;;;;6.30;1.70;;;5.40;69.60;;;;;;4942509;28;20506;-81
2023/12/13 12:04:36;;;;;;;13.30;2.53;;;5.40;69.40;;;;;;4944529;28;20035;-83
2023/12/13 12:07:05;;;;;;;5.93;2.03;;;5.40;69.40;;;;;;4947234;28;20538;-83
2023/12/13 12:09:32;;;;;;;6.82;1.95;;;5.40;69.50;;;;;;4931388;28;20023;-82
2023/12/13 12:11:58;;;;;;;8.57;2.13;;;5.40;69.60;;;;;;4944363;29;20045;-82
2023/12/13 12:14:28;;;;;;;10.35;2.45;;;5.40;69.70;;;;;;4913292;29;20522;-80
2023/12/13 12:16:54;;;;;;;9.82;2.58;;;5.40;70.20;;;;;;4945483;28;20090;-80
2023/12/13 12:19:20;;;;;;;15.85;2.38;;;5.40;70.20;;;;;;4947632;28;20061;-79
2023/12/13 12:21:46;;;;;;;8.05;2.35;;;5.40;70.30;;;;;;4940135;28;20118;-81
2023/12/13 12:24:12;;;;;;;5.95;2.05;;;5.40;70.20;;;;;;4925201;29;20043;-81
2023/12/13 12:26:38;;;;;;;10.25;2.33;;;5.30;69.60;;;;;;4946228;28;20390;-80
2023/12/13 12:29:04;;;;;;;12.40;2.50;;;5.30;67.90;;;;;;4901530;28;1248153;-81
2023/12/13 12:31:31;;;;;;;10.80;1.95;;;5.30;66.40;;;;;;4945051;28;20039;-79
2023/12/13 12:33:59;;;;;;;10.98;2.20;;;5.30;65.20;;;;;;4942917;28;20052;-80
2023/12/13 12:36:25;;;;;;;10.05;2.63;;;5.20;64.00;;;;;;4957191;28;20050;-80
2023/12/13 12:38:52;;;;;;;12.48;2.40;;;5.20;63.20;;;;;;4944465;28;20438;-77
2023/12/13 12:41:19;;;;;;;11.27;2.53;;;5.10;62.60;;;;;;4943080;28;20526;-82
2023/12/13 12:43:49;;;;;;;12.50;2.67;;;5.10;62.10;;;;;;4926592;29;20479;-81
2023/12/13 12:46:21;;;;;;;12.48;2.33;;;5.10;61.50;;;;;;4944192;28;20564;-82
2023/12/13 12:48:47;;;;;;;13.43;3.08;;;5.10;60.80;;;;;;4941808;28;20403;-82
2023/12/13 12:51:13;;;;;;;10.25;2.28;;;5.10;60.20;;;;;;4946254;28;20035;-83
2023/12/13 12:53:39;;;;;;;10.30;2.35;;;5.10;59.70;;;;;;4942484;28;20557;-81